SVA0001 OERK-OEMA
Flight info
| Callsign | SVA0001 |
|---|---|
| Flight time | 1h 12m |
| Altitude | 32000 |
| Route | IVONU Y216 ITSEP |
| Aircraft | B744/H-SDE3FGHIM1M2RWXY/LB1 |
Departure
| Time | 2026-04-24 14:15 |
|---|---|
| Airport | King Khalid International Airport (OERK) |
Arrival
| Time | 2026-04-24 15:27 |
|---|---|
| Airport | Prince Mohammad Bin Abdulaziz Airport (OEMA) |
| Time | Latitude | Longitude | Altitude | Speed | Heading |
|---|---|---|---|---|---|
| 2026-04-24 13:52 | 24.95049 | 46.71266 | 2050 ft | 0 kts | 240° |
| 2026-04-24 14:00 | 24.95049 | 46.71267 | 2050 ft | 0 kts | 240° |
| 2026-04-24 14:03 | 24.95052 | 46.71271 | 2050 ft | 2 kts | 240° |
| 2026-04-24 14:03 | 24.95061 | 46.71289 | 2052 ft | 3 kts | 240° |
| 2026-04-24 14:04 | 24.95071 | 46.71308 | 2051 ft | 2 kts | 240° |
| 2026-04-24 14:04 | 24.95079 | 46.71322 | 2050 ft | 3 kts | 249° |
| 2026-04-24 14:04 | 24.95086 | 46.71339 | 2051 ft | 3 kts | 272° |
| 2026-04-24 14:04 | 24.95086 | 46.71354 | 2049 ft | 3 kts | 303° |
| 2026-04-24 14:05 | 24.95077 | 46.71367 | 2049 ft | 3 kts | 328° |
| 2026-04-24 14:05 | 24.95060 | 46.71379 | 2049 ft | 3 kts | 332° |
| 2026-04-24 14:05 | 24.95048 | 46.71385 | 2055 ft | 0 kts | 330° |
| 2026-04-24 14:08 | 24.95051 | 46.71384 | 2054 ft | 1 kts | 330° |
| 2026-04-24 14:08 | 24.95068 | 46.71373 | 2053 ft | 5 kts | 330° |
| 2026-04-24 14:08 | 24.95112 | 46.71345 | 2053 ft | 10 kts | 330° |
| 2026-04-24 14:08 | 24.95182 | 46.71301 | 2049 ft | 14 kts | 330° |
| 2026-04-24 14:09 | 24.95272 | 46.71245 | 2052 ft | 16 kts | 330° |
| 2026-04-24 14:09 | 24.95357 | 46.71199 | 2053 ft | 12 kts | 355° |
| 2026-04-24 14:09 | 24.95425 | 46.71244 | 2053 ft | 12 kts | 40° |
| 2026-04-24 14:09 | 24.95477 | 46.71248 | 2052 ft | 7 kts | 347° |
| 2026-04-24 14:10 | 24.95522 | 46.71229 | 2053 ft | 7 kts | 330° |
| 2026-04-24 14:10 | 24.95585 | 46.71187 | 2053 ft | 14 kts | 328° |
| 2026-04-24 14:10 | 24.95683 | 46.71123 | 2052 ft | 18 kts | 329° |
| 2026-04-24 14:10 | 24.95802 | 46.71046 | 2049 ft | 21 kts | 329° |
| 2026-04-24 14:11 | 24.95940 | 46.70960 | 2049 ft | 24 kts | 332° |
| 2026-04-24 14:11 | 24.96091 | 46.70865 | 2050 ft | 27 kts | 330° |
| 2026-04-24 14:11 | 24.96444 | 46.70648 | 2052 ft | 31 kts | 329° |
| 2026-04-24 14:12 | 24.96637 | 46.70526 | 2054 ft | 33 kts | 330° |
| 2026-04-24 14:12 | 24.96831 | 46.70403 | 2051 ft | 32 kts | 330° |
| 2026-04-24 14:12 | 24.97021 | 46.70282 | 2052 ft | 31 kts | 331° |
| 2026-04-24 14:12 | 24.97198 | 46.70171 | 2052 ft | 28 kts | 330° |
| 2026-04-24 14:13 | 24.97356 | 46.70071 | 2052 ft | 23 kts | 331° |
| 2026-04-24 14:13 | 24.97470 | 46.69999 | 2052 ft | 17 kts | 328° |
| 2026-04-24 14:13 | 24.97542 | 46.69993 | 2049 ft | 6 kts | 36° |
| 2026-04-24 14:13 | 24.97585 | 46.70046 | 2050 ft | 13 kts | 54° |
| 2026-04-24 14:14 | 24.97634 | 46.70172 | 2040 ft | 22 kts | 87° |
| 2026-04-24 14:14 | 24.97538 | 46.70296 | 2046 ft | 26 kts | 151° |
| 2026-04-24 14:14 | 24.96075 | 46.71212 | 2162 ft | 199 kts | 149° |
| 2026-04-24 14:15 | 24.94879 | 46.71964 | 3257 ft | 197 kts | 144° |
| 2026-04-24 14:15 | 24.93715 | 46.72716 | 4400 ft | 196 kts | 143° |
| 2026-04-24 14:15 | 24.92486 | 46.73529 | 5162 ft | 217 kts | 147° |
| 2026-04-24 14:15 | 24.91071 | 46.74159 | 6117 ft | 218 kts | 169° |
| 2026-04-24 14:16 | 24.89622 | 46.73942 | 7147 ft | 209 kts | 200° |
| 2026-04-24 14:16 | 24.88487 | 46.73001 | 8117 ft | 204 kts | 229° |
| 2026-04-24 14:16 | 24.87843 | 46.71592 | 8944 ft | 211 kts | 248° |
| 2026-04-24 14:17 | 24.88027 | 46.68252 | 10555 ft | 220 kts | 279° |
| 2026-04-24 14:17 | 24.88441 | 46.66703 | 11676 ft | 201 kts | 283° |
| 2026-04-24 14:17 | 24.89041 | 46.63487 | 12356 ft | 247 kts | 274° |
| 2026-04-24 14:18 | 24.89352 | 46.61486 | 12708 ft | 281 kts | 277° |
| 2026-04-24 14:18 | 24.89753 | 46.59294 | 13460 ft | 296 kts | 277° |
| 2026-04-24 14:18 | 24.90162 | 46.57090 | 14579 ft | 296 kts | 277° |
| 2026-04-24 14:18 | 24.90556 | 46.54835 | 15570 ft | 300 kts | 276° |
| 2026-04-24 14:19 | 24.90815 | 46.53328 | 16197 ft | 303 kts | 276° |
| 2026-04-24 14:19 | 24.91348 | 46.50287 | 17509 ft | 307 kts | 276° |
| 2026-04-24 14:19 | 24.91756 | 46.47971 | 18423 ft | 311 kts | 276° |
| 2026-04-24 14:19 | 24.92174 | 46.45586 | 19018 ft | 315 kts | 276° |
| 2026-04-24 14:20 | 24.92590 | 46.43223 | 19543 ft | 315 kts | 276° |
| 2026-04-24 14:20 | 24.93005 | 46.40847 | 19936 ft | 316 kts | 276° |
| 2026-04-24 14:20 | 24.93421 | 46.38463 | 20370 ft | 318 kts | 276° |
| 2026-04-24 14:20 | 24.93839 | 46.36072 | 20785 ft | 318 kts | 277° |
| 2026-04-24 14:21 | 24.94259 | 46.33668 | 21191 ft | 320 kts | 277° |
| 2026-04-24 14:21 | 24.94678 | 46.31258 | 21601 ft | 320 kts | 277° |
| 2026-04-24 14:21 | 24.95100 | 46.28837 | 21990 ft | 321 kts | 277° |
| 2026-04-24 14:21 | 24.95522 | 46.26408 | 22372 ft | 323 kts | 277° |
| 2026-04-24 14:22 | 24.95940 | 46.24004 | 22748 ft | 324 kts | 277° |
| 2026-04-24 14:22 | 24.96365 | 46.21559 | 23128 ft | 325 kts | 277° |
| 2026-04-24 14:22 | 24.97216 | 46.16648 | 23794 ft | 327 kts | 277° |
| 2026-04-24 14:23 | 24.97642 | 46.14183 | 24068 ft | 328 kts | 277° |
| 2026-04-24 14:23 | 24.98070 | 46.11706 | 24353 ft | 329 kts | 277° |
| 2026-04-24 14:23 | 24.98498 | 46.09229 | 24629 ft | 330 kts | 277° |
| 2026-04-24 14:23 | 24.98928 | 46.06741 | 24901 ft | 331 kts | 277° |
| 2026-04-24 14:24 | 24.99352 | 46.04282 | 25157 ft | 331 kts | 277° |
| 2026-04-24 14:24 | 24.99782 | 46.01782 | 25399 ft | 333 kts | 277° |
| 2026-04-24 14:24 | 25.00213 | 45.99272 | 25659 ft | 334 kts | 277° |
| 2026-04-24 14:24 | 25.00646 | 45.96753 | 25909 ft | 335 kts | 277° |
| 2026-04-24 14:25 | 25.01080 | 45.94224 | 26147 ft | 336 kts | 277° |
| 2026-04-24 14:25 | 25.01515 | 45.91689 | 26398 ft | 337 kts | 277° |
| 2026-04-24 14:25 | 25.01951 | 45.89145 | 26640 ft | 338 kts | 277° |
| 2026-04-24 14:25 | 25.02388 | 45.86589 | 26880 ft | 339 kts | 277° |
| 2026-04-24 14:26 | 25.02826 | 45.84027 | 27110 ft | 340 kts | 277° |
| 2026-04-24 14:26 | 25.03265 | 45.81456 | 27329 ft | 341 kts | 277° |
| 2026-04-24 14:26 | 25.03705 | 45.78876 | 27554 ft | 343 kts | 277° |
| 2026-04-24 14:26 | 25.04146 | 45.76287 | 27770 ft | 344 kts | 277° |
| 2026-04-24 14:27 | 25.04587 | 45.73693 | 27986 ft | 345 kts | 277° |
| 2026-04-24 14:27 | 25.05025 | 45.71119 | 28196 ft | 346 kts | 277° |
| 2026-04-24 14:27 | 25.05447 | 45.68504 | 28398 ft | 346 kts | 273° |
| 2026-04-24 14:27 | 25.05518 | 45.65882 | 28874 ft | 339 kts | 264° |
| 2026-04-24 14:28 | 25.05337 | 45.63282 | 29426 ft | 342 kts | 264° |
| 2026-04-24 14:28 | 25.05159 | 45.60643 | 29972 ft | 345 kts | 264° |
| 2026-04-24 14:28 | 25.04976 | 45.57988 | 30441 ft | 348 kts | 264° |
| 2026-04-24 14:28 | 25.04788 | 45.55353 | 30908 ft | 350 kts | 264° |
| 2026-04-24 14:29 | 25.04597 | 45.52667 | 31376 ft | 352 kts | 264° |
| 2026-04-24 14:29 | 25.04407 | 45.49971 | 31856 ft | 353 kts | 264° |
| 2026-04-24 14:29 | 25.04213 | 45.47235 | 31934 ft | 366 kts | 264° |
| 2026-04-24 14:29 | 25.04009 | 45.44381 | 31952 ft | 379 kts | 264° |
| 2026-04-24 14:30 | 25.03870 | 45.42435 | 31948 ft | 389 kts | 264° |
| 2026-04-24 14:30 | 25.03580 | 45.38371 | 31954 ft | 405 kts | 264° |
| 2026-04-24 14:30 | 25.03356 | 45.35240 | 31954 ft | 415 kts | 264° |
| 2026-04-24 14:31 | 25.02890 | 45.28771 | 31950 ft | 427 kts | 264° |
| 2026-04-24 14:31 | 25.02418 | 45.22241 | 31954 ft | 427 kts | 264° |
| 2026-04-24 14:32 | 25.01942 | 45.15732 | 31952 ft | 427 kts | 264° |
| 2026-04-24 14:32 | 25.01464 | 45.09198 | 31943 ft | 426 kts | 264° |
| 2026-04-24 14:33 | 25.00986 | 45.02739 | 31944 ft | 425 kts | 264° |
| 2026-04-24 14:33 | 25.00505 | 44.96250 | 31952 ft | 424 kts | 263° |
| 2026-04-24 14:34 | 25.00020 | 44.89766 | 31943 ft | 423 kts | 263° |
| 2026-04-24 14:34 | 24.99534 | 44.83293 | 31951 ft | 423 kts | 263° |
| 2026-04-24 14:35 | 24.99045 | 44.76825 | 31942 ft | 423 kts | 263° |
| 2026-04-24 14:35 | 24.98556 | 44.70394 | 31945 ft | 424 kts | 263° |
| 2026-04-24 14:36 | 24.98061 | 44.63911 | 31943 ft | 425 kts | 263° |
| 2026-04-24 14:36 | 24.97561 | 44.57407 | 31939 ft | 426 kts | 263° |
| 2026-04-24 14:37 | 24.97058 | 44.50903 | 31933 ft | 426 kts | 263° |
| 2026-04-24 14:37 | 24.96664 | 44.44366 | 31935 ft | 428 kts | 265° |
| 2026-04-24 14:38 | 24.96452 | 44.37804 | 31932 ft | 428 kts | 265° |
| 2026-04-24 14:38 | 24.96231 | 44.31237 | 31936 ft | 430 kts | 265° |
| 2026-04-24 14:39 | 24.96011 | 44.24679 | 31937 ft | 431 kts | 265° |
| 2026-04-24 14:39 | 24.95783 | 44.18050 | 31939 ft | 432 kts | 265° |
| 2026-04-24 14:40 | 24.95554 | 44.11408 | 31938 ft | 434 kts | 265° |
| 2026-04-24 14:40 | 24.95321 | 44.04791 | 31941 ft | 435 kts | 265° |
| 2026-04-24 14:41 | 24.95086 | 43.98116 | 31937 ft | 435 kts | 265° |
| 2026-04-24 14:41 | 24.94848 | 43.91418 | 31948 ft | 437 kts | 265° |
| 2026-04-24 14:42 | 24.94647 | 43.85856 | 31945 ft | 437 kts | 265° |
| 2026-04-24 14:42 | 24.94363 | 43.78067 | 31946 ft | 438 kts | 265° |
| 2026-04-24 14:43 | 24.94158 | 43.72488 | 31949 ft | 438 kts | 265° |
| 2026-04-24 14:43 | 24.93908 | 43.65787 | 31960 ft | 438 kts | 265° |
| 2026-04-24 14:44 | 24.93654 | 43.59080 | 31957 ft | 437 kts | 265° |
| 2026-04-24 14:44 | 24.93398 | 43.52380 | 31954 ft | 437 kts | 265° |
| 2026-04-24 14:45 | 24.93141 | 43.45728 | 31954 ft | 437 kts | 264° |
| 2026-04-24 14:45 | 24.92879 | 43.39013 | 31962 ft | 437 kts | 264° |
| 2026-04-24 14:46 | 24.92614 | 43.32324 | 31965 ft | 437 kts | 264° |
| 2026-04-24 14:46 | 24.92347 | 43.25643 | 31953 ft | 436 kts | 264° |
| 2026-04-24 14:47 | 24.92078 | 43.19004 | 31960 ft | 436 kts | 264° |
| 2026-04-24 14:47 | 24.91805 | 43.12324 | 31947 ft | 436 kts | 263° |
| 2026-04-24 14:48 | 24.91530 | 43.05661 | 31955 ft | 435 kts | 263° |
| 2026-04-24 14:48 | 24.91251 | 42.98996 | 31956 ft | 436 kts | 263° |
| 2026-04-24 14:49 | 24.90970 | 42.92345 | 31958 ft | 437 kts | 263° |
| 2026-04-24 14:49 | 24.90684 | 42.85647 | 31962 ft | 438 kts | 263° |
| 2026-04-24 14:50 | 24.90395 | 42.78935 | 31960 ft | 439 kts | 262° |
| 2026-04-24 14:50 | 24.90102 | 42.72211 | 31958 ft | 439 kts | 262° |
| 2026-04-24 14:51 | 24.89808 | 42.65521 | 31966 ft | 439 kts | 262° |
| 2026-04-24 14:51 | 24.89508 | 42.58786 | 31956 ft | 440 kts | 263° |
| 2026-04-24 14:52 | 24.89206 | 42.52060 | 31960 ft | 440 kts | 263° |
| 2026-04-24 14:52 | 24.88900 | 42.45328 | 31959 ft | 440 kts | 263° |
| 2026-04-24 14:53 | 24.88591 | 42.38585 | 31953 ft | 441 kts | 263° |
| 2026-04-24 14:53 | 24.87940 | 42.31890 | 31966 ft | 439 kts | 259° |
| 2026-04-24 14:54 | 24.87158 | 42.25253 | 31963 ft | 439 kts | 258° |
| 2026-04-24 14:54 | 24.86364 | 42.18587 | 31962 ft | 439 kts | 258° |
| 2026-04-24 14:55 | 24.85569 | 42.11923 | 31959 ft | 438 kts | 258° |
| 2026-04-24 14:55 | 24.84773 | 42.05276 | 31955 ft | 437 kts | 258° |
| 2026-04-24 14:56 | 24.83977 | 41.98654 | 31955 ft | 435 kts | 258° |
| 2026-04-24 14:56 | 24.83187 | 41.92098 | 31949 ft | 433 kts | 258° |
| 2026-04-24 14:57 | 24.82392 | 41.85526 | 31951 ft | 432 kts | 258° |
| 2026-04-24 14:57 | 24.81598 | 41.78980 | 31955 ft | 431 kts | 258° |
| 2026-04-24 14:58 | 24.80801 | 41.72443 | 31937 ft | 430 kts | 258° |
| 2026-04-24 14:58 | 24.80004 | 41.65918 | 31944 ft | 429 kts | 258° |
| 2026-04-24 14:59 | 24.79208 | 41.59435 | 31936 ft | 429 kts | 258° |
| 2026-04-24 14:59 | 24.78408 | 41.52935 | 31936 ft | 429 kts | 258° |
| 2026-04-24 15:00 | 24.77601 | 41.46413 | 31938 ft | 429 kts | 258° |
| 2026-04-24 15:00 | 24.76806 | 41.39978 | 31564 ft | 413 kts | 258° |
| 2026-04-24 15:00 | 24.76431 | 41.36926 | 30961 ft | 392 kts | 258° |
| 2026-04-24 15:01 | 24.76052 | 41.33934 | 30083 ft | 398 kts | 258° |
| 2026-04-24 15:01 | 24.75676 | 41.30947 | 29447 ft | 393 kts | 258° |
| 2026-04-24 15:01 | 24.75306 | 41.27976 | 28676 ft | 390 kts | 258° |
| 2026-04-24 15:01 | 24.74939 | 41.25032 | 27928 ft | 387 kts | 258° |
| 2026-04-24 15:02 | 24.74571 | 41.22100 | 27195 ft | 384 kts | 258° |
| 2026-04-24 15:02 | 24.74205 | 41.19190 | 26492 ft | 381 kts | 258° |
| 2026-04-24 15:02 | 24.73842 | 41.16302 | 25672 ft | 379 kts | 259° |
| 2026-04-24 15:02 | 24.73483 | 41.13452 | 24857 ft | 374 kts | 259° |
| 2026-04-24 15:03 | 24.73133 | 41.10673 | 24065 ft | 369 kts | 259° |
| 2026-04-24 15:03 | 24.72780 | 41.07886 | 23258 ft | 366 kts | 259° |
| 2026-04-24 15:03 | 24.72432 | 41.05132 | 22356 ft | 361 kts | 259° |
| 2026-04-24 15:03 | 24.72089 | 41.02422 | 21475 ft | 356 kts | 259° |
| 2026-04-24 15:04 | 24.71749 | 40.99741 | 20631 ft | 351 kts | 259° |
| 2026-04-24 15:04 | 24.71414 | 40.97109 | 20010 ft | 342 kts | 259° |
| 2026-04-24 15:04 | 24.71095 | 40.94587 | 19908 ft | 327 kts | 258° |
| 2026-04-24 15:04 | 24.70776 | 40.92100 | 18755 ft | 335 kts | 258° |
| 2026-04-24 15:05 | 24.70093 | 40.89682 | 17934 ft | 326 kts | 242° |
| 2026-04-24 15:05 | 24.69005 | 40.87508 | 16933 ft | 323 kts | 239° |
| 2026-04-24 15:05 | 24.67897 | 40.85365 | 15988 ft | 321 kts | 241° |
| 2026-04-24 15:05 | 24.66850 | 40.83206 | 15167 ft | 316 kts | 242° |
| 2026-04-24 15:06 | 24.65875 | 40.81158 | 14895 ft | 292 kts | 242° |
| 2026-04-24 15:06 | 24.64958 | 40.79277 | 14890 ft | 267 kts | 241° |
| 2026-04-24 15:06 | 24.64106 | 40.77545 | 14890 ft | 256 kts | 241° |
| 2026-04-24 15:06 | 24.63261 | 40.75816 | 14895 ft | 257 kts | 241° |
| 2026-04-24 15:07 | 24.62419 | 40.74091 | 14898 ft | 257 kts | 241° |
| 2026-04-24 15:07 | 24.61574 | 40.72360 | 14897 ft | 257 kts | 241° |
| 2026-04-24 15:07 | 24.60734 | 40.70643 | 14896 ft | 257 kts | 241° |
| 2026-04-24 15:07 | 24.59882 | 40.68901 | 14787 ft | 251 kts | 241° |
| 2026-04-24 15:08 | 24.59057 | 40.67216 | 14169 ft | 255 kts | 241° |
| 2026-04-24 15:08 | 24.58218 | 40.65500 | 13683 ft | 254 kts | 241° |
| 2026-04-24 15:08 | 24.57378 | 40.63786 | 13111 ft | 254 kts | 242° |
| 2026-04-24 15:08 | 24.56540 | 40.62073 | 12543 ft | 255 kts | 241° |
| 2026-04-24 15:09 | 24.55698 | 40.60356 | 11988 ft | 256 kts | 242° |
| 2026-04-24 15:09 | 24.54852 | 40.58629 | 11464 ft | 256 kts | 242° |
| 2026-04-24 15:09 | 24.54001 | 40.56894 | 10917 ft | 258 kts | 242° |
| 2026-04-24 15:09 | 24.53151 | 40.55159 | 10417 ft | 258 kts | 242° |
| 2026-04-24 15:10 | 24.52302 | 40.53430 | 10056 ft | 253 kts | 242° |
| 2026-04-24 15:10 | 24.51487 | 40.51769 | 10042 ft | 253 kts | 242° |
| 2026-04-24 15:10 | 24.50638 | 40.50040 | 10054 ft | 258 kts | 242° |
| 2026-04-24 15:10 | 24.49786 | 40.48306 | 10051 ft | 258 kts | 242° |
| 2026-04-24 15:11 | 24.48934 | 40.46571 | 9877 ft | 258 kts | 242° |
| 2026-04-24 15:11 | 24.48078 | 40.44829 | 9608 ft | 260 kts | 242° |
| 2026-04-24 15:11 | 24.47219 | 40.43083 | 9368 ft | 259 kts | 242° |
| 2026-04-24 15:11 | 24.46369 | 40.41355 | 9076 ft | 257 kts | 242° |
| 2026-04-24 15:12 | 24.45517 | 40.39622 | 8709 ft | 258 kts | 242° |
| 2026-04-24 15:12 | 24.43831 | 40.36199 | 8058 ft | 255 kts | 242° |
| 2026-04-24 15:12 | 24.43008 | 40.34529 | 8048 ft | 247 kts | 242° |
| 2026-04-24 15:13 | 24.42172 | 40.32831 | 8052 ft | 254 kts | 242° |
| 2026-04-24 15:13 | 24.41332 | 40.31127 | 8050 ft | 254 kts | 242° |
| 2026-04-24 15:13 | 24.40491 | 40.29422 | 8048 ft | 254 kts | 242° |
| 2026-04-24 15:13 | 24.39647 | 40.27711 | 8045 ft | 255 kts | 242° |
| 2026-04-24 15:14 | 24.38800 | 40.25994 | 8042 ft | 255 kts | 242° |
| 2026-04-24 15:14 | 24.37964 | 40.24302 | 8040 ft | 256 kts | 242° |
| 2026-04-24 15:14 | 24.37118 | 40.22589 | 8043 ft | 254 kts | 241° |
| 2026-04-24 15:14 | 24.36254 | 40.20841 | 8054 ft | 271 kts | 241° |
| 2026-04-24 15:15 | 24.35349 | 40.19010 | 8048 ft | 273 kts | 241° |
| 2026-04-24 15:15 | 24.34435 | 40.17161 | 8050 ft | 277 kts | 241° |
| 2026-04-24 15:15 | 24.33512 | 40.15296 | 8041 ft | 277 kts | 241° |
| 2026-04-24 15:15 | 24.32591 | 40.13434 | 8049 ft | 278 kts | 241° |
| 2026-04-24 15:16 | 24.31673 | 40.11579 | 8044 ft | 277 kts | 241° |
| 2026-04-24 15:16 | 24.30767 | 40.09750 | 8043 ft | 276 kts | 241° |
| 2026-04-24 15:16 | 24.29845 | 40.07889 | 8042 ft | 277 kts | 241° |
| 2026-04-24 15:16 | 24.28928 | 40.06039 | 8042 ft | 278 kts | 241° |
| 2026-04-24 15:17 | 24.28004 | 40.04172 | 8043 ft | 276 kts | 241° |
| 2026-04-24 15:17 | 24.27081 | 40.02312 | 8043 ft | 277 kts | 241° |
| 2026-04-24 15:17 | 24.26164 | 40.00465 | 7893 ft | 276 kts | 240° |
| 2026-04-24 15:17 | 24.25244 | 39.98611 | 7733 ft | 276 kts | 241° |
| 2026-04-24 15:18 | 24.24336 | 39.96784 | 7556 ft | 275 kts | 241° |
| 2026-04-24 15:18 | 24.23418 | 39.94934 | 7399 ft | 275 kts | 241° |
| 2026-04-24 15:18 | 24.22509 | 39.93106 | 7273 ft | 273 kts | 241° |
| 2026-04-24 15:18 | 24.21606 | 39.91288 | 7232 ft | 269 kts | 240° |
| 2026-04-24 15:19 | 24.20742 | 39.89491 | 7199 ft | 264 kts | 247° |
| 2026-04-24 15:19 | 24.20299 | 39.87558 | 7177 ft | 260 kts | 258° |
| 2026-04-24 15:19 | 24.19963 | 39.85619 | 7161 ft | 258 kts | 256° |
| 2026-04-24 15:19 | 24.19256 | 39.83876 | 7189 ft | 252 kts | 239° |
| 2026-04-24 15:20 | 24.18720 | 39.82104 | 7179 ft | 242 kts | 266° |
| 2026-04-24 15:20 | 24.19067 | 39.80356 | 7183 ft | 236 kts | 298° |
| 2026-04-24 15:20 | 24.20170 | 39.79038 | 6885 ft | 240 kts | 323° |
| 2026-04-24 15:20 | 24.21606 | 39.78202 | 6548 ft | 225 kts | 334° |
| 2026-04-24 15:21 | 24.23126 | 39.77686 | 6555 ft | 234 kts | 345° |
| 2026-04-24 15:21 | 24.24701 | 39.77343 | 6551 ft | 222 kts | 346° |
| 2026-04-24 15:21 | 24.26180 | 39.77029 | 6536 ft | 214 kts | 346° |
| 2026-04-24 15:21 | 24.27612 | 39.76725 | 6290 ft | 209 kts | 347° |
| 2026-04-24 15:22 | 24.29032 | 39.76425 | 6032 ft | 204 kts | 346° |
| 2026-04-24 15:22 | 24.30438 | 39.76124 | 6037 ft | 210 kts | 346° |
| 2026-04-24 15:22 | 24.31859 | 39.75821 | 5939 ft | 208 kts | 346° |
| 2026-04-24 15:23 | 24.34676 | 39.75222 | 5288 ft | 202 kts | 346° |
| 2026-04-24 15:23 | 24.37377 | 39.74647 | 4507 ft | 178 kts | 346° |
| 2026-04-24 15:23 | 24.38615 | 39.74385 | 4523 ft | 185 kts | 347° |
| 2026-04-24 15:24 | 24.42384 | 39.73582 | 4259 ft | 181 kts | 346° |
| 2026-04-24 15:25 | 24.44355 | 39.73164 | 3915 ft | 161 kts | 345° |
| 2026-04-24 15:25 | 24.46911 | 39.72596 | 3538 ft | 161 kts | 344° |
| 2026-04-24 15:26 | 24.50097 | 39.71906 | 2879 ft | 155 kts | 345° |
| 2026-04-24 15:27 | 24.53248 | 39.71264 | 2219 ft | 145 kts | 346° |
| 2026-04-24 15:27 | 24.55083 | 39.70873 | 2103 ft | 29 kts | 349° |
| 2026-04-24 15:28 | 24.55556 | 39.70774 | 2109 ft | 44 kts | 348° |
| 2026-04-24 15:29 | 24.56092 | 39.70683 | 2126 ft | 29 kts | 9° |
| 2026-04-24 15:30 | 24.56255 | 39.70743 | 2127 ft | 0 kts | 35° |
| 2026-04-24 15:32 | 24.56379 | 39.70794 | 2130 ft | 10 kts | 3° |
| 2026-04-24 15:33 | 24.56457 | 39.70977 | 2131 ft | 0 kts | 78° |
| 2026-04-24 15:33 | 24.56499 | 39.71221 | 2132 ft | 15 kts | 82° |
| 2026-04-24 15:34 | 24.56483 | 39.71299 | 2131 ft | 0 kts | 118° |
| 2026-04-24 15:35 | 24.56430 | 39.71272 | 2131 ft | 2 kts | 246° |
| 2026-04-24 15:35 | 24.56430 | 39.71271 | 2131 ft | 0 kts | 245° |